Rochelle, Georgia
Current Conditions -  °F | °C
As of 3:55 PM on Tuesday 25 Nov 2014 (Local Time) from KCKF Reporting Station
Light Rain Light Rain  
Wind Chill: 12°   Ceiling: 8000
Heat Index: 12°   Visibility: 10mi
Dew Point: 10°   Wind: 3mph
Humidity: 88%   Direction: 350°N
Pressure: 30.03"   Gusts: NA
Location:  31.95°N, 83.46°W
Report Text: KCKF 252055Z AUTO 35003KT 10SM -RA BKN080 OVC110 12/10 A3003 RMK AO2 LTG DSNT SE T01180098
Loading
Personal Weather Stations






























Interactive Weather Map New forecast layout! Learn more

10-Day Weather Forecast

Advertisements
Track Severe Weather on mobile